Time;durP1;ratioP1;P1;durP2;ratioP2;P2;SDS_P1;SDS_P2;PMS_P1;PMS_P2;Temp;Humidity;BMP_temperature;BMP_pressure;BME280_temperature;BME280_humidity;BME280_pressure;Samples;Min_cycle;Max_cycle;Signal;HPM_P1;HPM_P2
2022/12/09 00:01:59;;;;;;;2.90;1.90;;;16.30;52.70;;;;;;6180723;23;45352;-72
2022/12/09 00:04:27;;;;;;;3.53;1.98;;;16.30;52.70;;;;;;6180513;23;45454;-71
2022/12/09 00:06:53;;;;;;;3.35;2.17;;;16.30;52.70;;;;;;6180141;23;47295;-72
2022/12/09 00:09:20;;;;;;;3.28;2.00;;;16.40;52.70;;;;;;6179405;23;45293;-73
2022/12/09 00:11:47;;;;;;;2.97;1.95;;;16.40;52.50;;;;;;6180195;23;45315;-71
2022/12/09 00:14:14;;;;;;;3.20;2.00;;;16.30;52.50;;;;;;6180691;23;45511;-72
2022/12/09 00:16:41;;;;;;;2.83;1.90;;;16.30;52.40;;;;;;6180046;23;46287;-72
2022/12/09 00:19:07;;;;;;;3.97;2.30;;;16.30;52.30;;;;;;6180514;23;45498;-71
2022/12/09 00:21:36;;;;;;;4.85;2.17;;;16.30;52.30;;;;;;6181127;23;45332;-71
2022/12/09 00:24:05;;;;;;;4.47;2.20;;;16.30;52.20;;;;;;6181890;23;45355;-72
2022/12/09 00:26:33;;;;;;;3.42;1.92;;;16.30;52.40;;;;;;6181376;23;45260;-72
2022/12/09 00:29:01;;;;;;;3.65;2.05;;;16.30;52.20;;;;;;6181158;23;45327;-72
2022/12/09 00:31:31;;;;;;;3.42;2.05;;;16.30;52.30;;;;;;6182106;23;45380;-72
2022/12/09 00:34:00;;;;;;;5.07;2.50;;;16.30;53.50;;;;;;6181699;23;45289;-71
2022/12/09 00:36:27;;;;;;;3.42;2.30;;;16.30;52.20;;;;;;6181747;23;45448;-71
2022/12/09 00:38:57;;;;;;;3.17;2.13;;;16.30;52.20;;;;;;6180338;23;46068;-71
2022/12/09 00:41:24;;;;;;;5.43;2.00;;;16.30;52.40;;;;;;6180369;23;45316;-72
2022/12/09 00:43:51;;;;;;;3.90;2.22;;;16.30;52.30;;;;;;6184703;23;45344;-72
2022/12/09 00:46:18;;;;;;;3.10;1.95;;;16.30;52.60;;;;;;6178798;23;47472;-71
2022/12/09 00:48:46;;;;;;;3.55;2.25;;;16.30;52.50;;;;;;6180426;23;45380;-73
2022/12/09 00:51:15;;;;;;;5.40;2.38;;;16.30;52.50;;;;;;6181272;23;45296;-72
2022/12/09 00:53:42;;;;;;;4.28;2.40;;;16.30;52.50;;;;;;6182367;23;45317;-72
2022/12/09 00:56:11;;;;;;;4.57;1.90;;;16.30;52.50;;;;;;6179317;23;46253;-71
2022/12/09 00:58:38;;;;;;;2.97;2.28;;;16.30;52.50;;;;;;6179935;23;45223;-72
2022/12/09 01:01:05;;;;;;;3.78;2.33;;;16.30;52.50;;;;;;6181240;23;45389;-72
2022/12/09 01:03:32;;;;;;;3.75;2.35;;;16.30;52.50;;;;;;6178905;23;45273;-71
2022/12/09 01:05:59;;;;;;;3.10;2.10;;;16.40;52.20;;;;;;6181042;23;47005;-71
2022/12/09 01:08:25;;;;;;;6.25;2.40;;;16.30;52.40;;;;;;6182267;23;45303;-71
2022/12/09 01:10:52;;;;;;;4.18;2.33;;;16.30;52.20;;;;;;6181999;23;45237;-70
2022/12/09 01:13:21;;;;;;;5.70;2.50;;;16.30;51.90;;;;;;6181561;23;45487;-71
2022/12/09 01:15:47;;;;;;;4.45;2.40;;;16.20;51.70;;;;;;6181481;23;45434;-71
2022/12/09 01:18:14;;;;;;;3.60;2.63;;;16.20;50.60;;;;;;6180516;23;45283;-71
2022/12/09 01:20:41;;;;;;;4.22;2.70;;;16.20;50.70;;;;;;6182212;23;45386;-71
2022/12/09 01:23:08;;;;;;;4.03;2.88;;;16.10;50.30;;;;;;6182650;23;45271;-71
2022/12/09 01:25:37;;;;;;;4.45;2.90;;;16.20;50.50;;;;;;6182324;23;45213;-71
2022/12/09 01:28:04;;;;;;;6.45;3.22;;;16.20;50.50;;;;;;6181670;23;45271;-71
2022/12/09 01:30:32;;;;;;;5.50;3.25;;;16.10;49.90;;;;;;6182869;23;45355;-71
2022/12/09 01:32:59;;;;;;;6.53;3.17;;;16.10;49.40;;;;;;6182320;23;45450;-71
2022/12/09 01:35:25;;;;;;;4.47;3.00;;;16.10;49.20;;;;;;6181176;23;47220;-72
2022/12/09 01:37:52;;;;;;;4.40;2.58;;;16.10;49.90;;;;;;6181892;22;45220;-71
2022/12/09 01:40:19;;;;;;;4.78;3.17;;;16.10;50.30;;;;;;6181353;23;45238;-71
2022/12/09 01:42:46;;;;;;;5.03;3.00;;;16.20;50.40;;;;;;6183066;23;45392;-72
2022/12/09 01:45:38;;;;;;;6.88;3.10;;;16.20;51.70;;;;;;6182035;23;46984;-71
2022/12/09 01:48:10;;;;;;;6.20;3.25;;;16.10;50.10;;;;;;6181690;23;45369;-71
2022/12/09 01:50:39;;;;;;;5.82;3.05;;;16.20;49.90;;;;;;6182750;23;45321;-71
2022/12/09 01:53:06;;;;;;;6.50;3.10;;;16.10;49.80;;;;;;6181915;23;45443;-71
2022/12/09 01:55:34;;;;;;;4.97;2.92;;;16.20;49.60;;;;;;6182728;23;47682;-72
2022/12/09 01:58:01;;;;;;;5.63;3.30;;;16.10;49.10;;;;;;6181889;23;45634;-71
2022/12/09 02:00:28;;;;;;;5.95;2.88;;;16.20;49.10;;;;;;6183090;23;45309;-72
2022/12/09 02:02:57;;;;;;;5.70;3.47;;;16.10;48.60;;;;;;6182164;23;45475;-72
2022/12/09 02:05:24;;;;;;;5.82;3.63;;;16.10;48.30;;;;;;6182232;23;45692;-71
2022/12/09 02:07:51;;;;;;;7.10;3.45;;;16.10;47.90;;;;;;6182192;23;45350;-71
2022/12/09 02:10:19;;;;;;;4.40;3.10;;;16.10;47.90;;;;;;6182581;23;45348;-71
2022/12/09 02:12:54;;;;;;;6.57;3.80;;;16.10;47.90;;;;;;6181719;23;45232;-72
2022/12/09 02:15:25;;;;;;;5.20;3.30;;;16.10;47.70;;;;;;6182590;23;46447;-71
2022/12/09 02:17:57;;;;;;;6.53;3.50;;;16.10;47.60;;;;;;6180470;23;45260;-71
2022/12/09 02:20:29;;;;;;;4.45;3.22;;;16.10;47.70;;;;;;6181947;23;45323;-71
2022/12/09 02:23:05;;;;;;;4.85;3.40;;;16.00;47.60;;;;;;6183283;23;45379;-71
2022/12/09 02:25:39;;;;;;;10.15;3.88;;;16.10;47.40;;;;;;6181920;23;46241;-71
2022/12/09 02:28:22;;;;;;;5.80;3.53;;;16.10;47.50;;;;;;6181919;23;45228;-71
2022/12/09 02:30:57;;;;;;;5.13;3.35;;;16.00;47.50;;;;;;6182154;23;45257;-72
2022/12/09 02:33:40;;;;;;;5.40;3.20;;;16.10;47.90;;;;;;6183342;23;45500;-71
2022/12/09 02:36:15;;;;;;;4.53;3.00;;;16.10;48.20;;;;;;6182268;23;45279;-71
2022/12/09 02:38:43;;;;;;;6.20;3.45;;;16.10;47.70;;;;;;6181276;23;45413;-72
2022/12/09 02:41:13;;;;;;;5.32;3.35;;;16.10;47.60;;;;;;6182873;23;45313;-72
2022/12/09 02:43:45;;;;;;;5.55;2.97;;;16.10;47.50;;;;;;6181571;23;45368;-71
2022/12/09 02:46:14;;;;;;;3.83;2.85;;;16.10;47.30;;;;;;6182473;23;45421;-71
2022/12/09 02:48:47;;;;;;;8.07;2.90;;;16.10;47.50;;;;;;6181568;23;45308;-71
2022/12/09 02:51:18;;;;;;;4.40;3.45;;;16.10;47.30;;;;;;6182885;23;45300;-71
2022/12/09 02:53:49;;;;;;;4.65;3.17;;;16.10;47.10;;;;;;6183249;23;45345;-72
2022/12/09 02:56:17;;;;;;;7.07;3.50;;;16.10;47.20;;;;;;6181505;23;47010;-71
2022/12/09 02:58:43;;;;;;;4.75;3.00;;;16.10;50.30;;;;;;6182250;23;45201;-71
2022/12/09 03:01:20;;;;;;;5.10;2.97;;;16.00;49.60;;;;;;6181284;23;45289;-71
2022/12/09 03:03:47;;;;;;;5.60;3.20;;;16.10;48.70;;;;;;6182807;23;45385;-71
2022/12/09 03:06:18;;;;;;;5.30;3.22;;;16.00;48.10;;;;;;6181363;23;47479;-71
2022/12/09 03:08:52;;;;;;;4.53;3.22;;;16.00;47.60;;;;;;6182271;23;45297;-72
2022/12/09 03:11:21;;;;;;;6.15;3.47;;;16.00;47.30;;;;;;6182251;23;45337;-71
2022/12/09 03:13:58;;;;;;;4.63;3.40;;;16.00;47.30;;;;;;6181116;23;45253;-71
2022/12/09 03:16:30;;;;;;;5.35;3.65;;;16.00;47.00;;;;;;6180818;23;47230;-71
2022/12/09 03:19:03;;;;;;;5.43;3.65;;;16.00;47.00;;;;;;6182005;23;45356;-71
2022/12/09 03:21:34;;;;;;;7.32;3.70;;;16.00;47.00;;;;;;6182470;23;45222;-71
2022/12/09 03:24:02;;;;;;;6.18;3.47;;;16.00;47.20;;;;;;6182166;23;45727;-72
2022/12/09 03:26:32;;;;;;;5.68;3.38;;;16.10;47.50;;;;;;6182213;23;47456;-71
2022/12/09 03:29:02;;;;;;;5.10;3.00;;;16.00;47.40;;;;;;6183809;23;45304;-71
2022/12/09 03:31:31;;;;;;;6.82;3.50;;;16.00;47.20;;;;;;6182536;23;45280;-71
2022/12/09 03:34:03;;;;;;;4.63;3.17;;;16.10;47.40;;;;;;6183050;23;45516;-72
2022/12/09 03:36:36;;;;;;;4.00;2.90;;;16.10;47.40;;;;;;6181183;23;46098;-72
2022/12/09 03:39:05;;;;;;;4.45;2.90;;;16.10;47.40;;;;;;6181796;23;45423;-71
2022/12/09 03:41:33;;;;;;;5.45;3.05;;;16.10;47.30;;;;;;6181881;23;45233;-72
2022/12/09 03:44:08;;;;;;;5.07;2.90;;;16.10;46.90;;;;;;6182125;23;45273;-71
2022/12/09 03:46:35;;;;;;;5.93;2.92;;;16.10;46.40;;;;;;6181458;23;45495;-72
2022/12/09 03:49:02;;;;;;;5.07;3.25;;;16.10;46.50;;;;;;6181261;23;45957;-71
2022/12/09 03:51:35;;;;;;;7.85;3.40;;;16.00;46.30;;;;;;6182368;23;45246;-72
2022/12/09 03:54:09;;;;;;;4.68;3.13;;;16.00;46.40;;;;;;6182373;23;45506;-72
2022/12/09 03:56:39;;;;;;;4.78;3.08;;;16.00;46.20;;;;;;6183420;23;47871;-72
2022/12/09 03:59:11;;;;;;;6.07;3.58;;;16.00;46.20;;;;;;6182717;23;46127;-72
2022/12/09 04:01:39;;;;;;;4.53;2.72;;;16.00;46.20;;;;;;6184174;23;45437;-71
2022/12/09 04:04:07;;;;;;;4.65;2.90;;;16.00;46.30;;;;;;6183352;23;45321;-72
2022/12/09 04:06:35;;;;;;;5.07;3.08;;;16.00;46.30;;;;;;6182949;23;46498;-72
2022/12/09 04:09:03;;;;;;;4.25;2.70;;;16.00;46.30;;;;;;6181920;23;45425;-72
2022/12/09 04:11:31;;;;;;;3.50;2.70;;;16.00;46.30;;;;;;6182655;23;45383;-72
2022/12/09 04:13:58;;;;;;;4.45;2.63;;;16.00;46.20;;;;;;6182701;23;45241;-72
2022/12/09 04:16:25;;;;;;;4.68;2.78;;;16.00;46.40;;;;;;6182875;23;48324;-71
2022/12/09 04:18:52;;;;;;;6.22;2.92;;;16.00;46.60;;;;;;6180581;23;45379;-72
2022/12/09 04:21:18;;;;;;;4.93;2.88;;;16.00;46.30;;;;;;6182485;23;45305;-71
2022/12/09 04:23:46;;;;;;;3.63;2.55;;;16.00;46.60;;;;;;6183358;23;45340;-71
2022/12/09 04:26:15;;;;;;;5.38;2.90;;;16.00;46.80;;;;;;6182812;23;48383;-71
2022/12/09 04:28:42;;;;;;;5.90;2.80;;;16.00;46.60;;;;;;6182498;23;45293;-71
2022/12/09 04:31:11;;;;;;;6.55;2.92;;;16.00;46.60;;;;;;6182739;23;45304;-72
2022/12/09 04:33:38;;;;;;;3.90;2.80;;;16.00;46.20;;;;;;6183586;23;45549;-71
2022/12/09 04:36:06;;;;;;;3.55;2.70;;;16.00;46.00;;;;;;6182273;23;48399;-72
2022/12/09 04:38:32;;;;;;;4.35;2.90;;;15.90;45.90;;;;;;6182341;23;45388;-72
2022/12/09 04:41:01;;;;;;;4.30;3.00;;;15.90;46.00;;;;;;6182619;23;45444;-71
2022/12/09 04:43:29;;;;;;;4.80;2.60;;;15.90;46.10;;;;;;6183355;23;45397;-72
2022/12/09 04:46:00;;;;;;;4.30;2.55;;;15.90;45.90;;;;;;6180817;23;47918;-71
2022/12/09 04:48:27;;;;;;;7.15;2.97;;;15.90;46.20;;;;;;6182113;23;45427;-71
2022/12/09 04:50:54;;;;;;;3.95;2.40;;;15.90;45.80;;;;;;6182838;23;45277;-71
2022/12/09 04:53:21;;;;;;;4.47;2.70;;;15.90;45.60;;;;;;6183266;23;45548;-71
2022/12/09 04:55:47;;;;;;;4.72;2.60;;;15.90;45.60;;;;;;6182806;23;47390;-71
2022/12/09 04:58:16;;;;;;;4.90;2.40;;;15.90;45.60;;;;;;6182401;23;45403;-72
2022/12/09 05:00:42;;;;;;;3.88;2.50;;;15.90;45.90;;;;;;6181575;23;45381;-72
2022/12/09 05:03:09;;;;;;;3.90;2.65;;;15.90;49.40;;;;;;6182785;23;45503;-72
2022/12/09 05:05:39;;;;;;;4.38;2.65;;;15.90;48.60;;;;;;6181349;23;46558;-71
2022/12/09 05:08:07;;;;;;;3.63;2.28;;;15.90;47.70;;;;;;6182954;23;45626;-71
2022/12/09 05:10:33;;;;;;;3.35;2.13;;;16.00;47.10;;;;;;6181909;23;45321;-72
2022/12/09 05:13:00;;;;;;;5.07;2.60;;;16.00;46.90;;;;;;6181799;23;45456;-72
2022/12/09 05:15:29;;;;;;;3.83;2.17;;;16.00;46.80;;;;;;6182768;23;47697;-73
2022/12/09 05:17:57;;;;;;;4.55;2.47;;;16.00;46.60;;;;;;6182313;23;45330;-72
2022/12/09 05:20:27;;;;;;;4.18;2.70;;;16.00;46.40;;;;;;6181878;23;45358;-72
2022/12/09 05:22:56;;;;;;;4.57;2.50;;;16.00;46.50;;;;;;6182847;23;45287;-72
2022/12/09 05:25:23;;;;;;;3.90;2.50;;;16.00;46.20;;;;;;6183365;23;47522;-72
2022/12/09 05:27:50;;;;;;;3.47;2.30;;;16.00;46.00;;;;;;6183062;23;45420;-72
2022/12/09 05:30:17;;;;;;;4.55;2.80;;;16.00;46.00;;;;;;6181384;23;45393;-72
2022/12/09 05:32:45;;;;;;;3.47;2.50;;;16.00;45.70;;;;;;6183557;23;45471;-71
2022/12/09 05:35:12;;;;;;;4.07;2.65;;;15.90;45.60;;;;;;6181604;23;48397;-72
2022/12/09 05:37:39;;;;;;;4.03;2.42;;;15.90;45.50;;;;;;6183557;22;45377;-71
2022/12/09 05:40:07;;;;;;;3.35;2.20;;;16.00;45.50;;;;;;6182391;23;45384;-72
2022/12/09 05:42:33;;;;;;;3.83;2.45;;;15.90;45.20;;;;;;6182481;23;45333;-72
2022/12/09 05:45:00;;;;;;;4.55;2.38;;;15.90;45.30;;;;;;6182052;23;47364;-71
2022/12/09 05:47:27;;;;;;;3.67;2.30;;;15.90;45.40;;;;;;6182095;23;45319;-71
2022/12/09 05:49:55;;;;;;;3.40;2.05;;;15.90;45.20;;;;;;6181518;23;45205;-72
2022/12/09 05:52:22;;;;;;;4.68;2.40;;;15.90;45.10;;;;;;6182622;23;45389;-71
2022/12/09 05:54:49;;;;;;;3.75;2.60;;;15.90;45.40;;;;;;6182288;23;46539;-71
2022/12/09 05:57:16;;;;;;;3.53;2.05;;;15.90;45.20;;;;;;6183466;23;45433;-71
2022/12/09 05:59:43;;;;;;;4.13;2.55;;;15.90;45.40;;;;;;6181414;23;45189;-72
2022/12/09 06:02:09;;;;;;;3.95;2.72;;;15.90;45.60;;;;;;6182573;23;45212;-72
2022/12/09 06:04:36;;;;;;;3.55;2.13;;;16.00;45.90;;;;;;6182342;23;45319;-73
2022/12/09 06:07:05;;;;;;;3.55;2.45;;;16.00;45.80;;;;;;6182925;23;45297;-71
2022/12/09 06:09:32;;;;;;;5.85;2.10;;;16.00;45.50;;;;;;6181673;23;45325;-72
2022/12/09 06:11:59;;;;;;;4.00;2.30;;;16.00;45.70;;;;;;6182598;23;45376;-72
2022/12/09 06:14:26;;;;;;;3.60;2.00;;;16.00;45.60;;;;;;6183658;23;46046;-72
2022/12/09 06:16:53;;;;;;;3.53;2.20;;;16.00;46.60;;;;;;6180595;23;45285;-72
2022/12/09 06:19:19;;;;;;;4.32;2.50;;;16.00;45.10;;;;;;6181970;23;45240;-71
2022/12/09 06:21:46;;;;;;;4.38;2.15;;;16.00;45.00;;;;;;6182630;23;45193;-71
2022/12/09 06:24:14;;;;;;;3.75;2.30;;;15.90;44.90;;;;;;6181909;23;46984;-72
2022/12/09 06:26:41;;;;;;;3.00;2.20;;;16.00;44.80;;;;;;6182650;23;45265;-71
2022/12/09 06:29:09;;;;;;;3.78;2.20;;;15.90;44.80;;;;;;6181640;23;45461;-72
2022/12/09 06:31:36;;;;;;;3.70;2.00;;;15.90;44.90;;;;;;6182991;23;45407;-72
2022/12/09 06:34:03;;;;;;;3.00;2.05;;;15.90;45.00;;;;;;6182876;23;45201;-72
2022/12/09 06:36:31;;;;;;;5.82;2.25;;;15.90;44.80;;;;;;6181608;22;45422;-72
2022/12/09 06:38:59;;;;;;;3.53;2.33;;;15.90;44.90;;;;;;6182016;23;45211;-71
2022/12/09 06:41:28;;;;;;;4.32;2.63;;;15.90;44.80;;;;;;6182101;23;45502;-71
2022/12/09 06:43:57;;;;;;;3.22;2.35;;;15.90;44.80;;;;;;6182468;23;45298;-71
2022/12/09 06:46:24;;;;;;;3.25;2.28;;;15.90;44.80;;;;;;6181803;23;45292;-72
2022/12/09 06:48:52;;;;;;;3.25;2.33;;;16.00;44.60;;;;;;6181695;23;45303;-71
2022/12/09 06:51:19;;;;;;;3.35;2.25;;;15.90;44.80;;;;;;6182514;23;45300;-71
2022/12/09 06:53:46;;;;;;;5.13;2.40;;;16.00;45.10;;;;;;6181874;23;46323;-71
2022/12/09 06:56:14;;;;;;;3.47;2.33;;;16.00;44.90;;;;;;6182509;23;45387;-72
2022/12/09 06:58:44;;;;;;;3.08;2.30;;;16.00;44.80;;;;;;6181992;23;45210;-72
2022/12/09 07:01:13;;;;;;;3.53;2.30;;;16.00;44.80;;;;;;6182291;23;45278;-72
2022/12/09 07:03:40;;;;;;;2.97;2.00;;;16.00;45.00;;;;;;6182702;23;45378;-71
2022/12/09 07:06:07;;;;;;;3.20;2.15;;;16.00;45.20;;;;;;6181841;23;45305;-71
2022/12/09 07:08:34;;;;;;;7.55;2.33;;;16.00;48.00;;;;;;6182017;23;45314;-72
2022/12/09 07:11:01;;;;;;;3.35;2.35;;;16.00;47.80;;;;;;6182253;23;45495;-71
2022/12/09 07:13:28;;;;;;;4.80;2.53;;;16.00;46.70;;;;;;6181352;23;48006;-72
2022/12/09 07:15:56;;;;;;;3.10;2.30;;;16.00;46.20;;;;;;6182230;23;45248;-72
2022/12/09 07:18:22;;;;;;;3.67;2.38;;;15.90;45.60;;;;;;6180532;23;45345;-72
2022/12/09 07:20:49;;;;;;;3.03;2.25;;;16.00;45.40;;;;;;6182074;23;45479;-72
2022/12/09 07:23:16;;;;;;;4.20;2.35;;;15.90;45.10;;;;;;6182115;23;47021;-72
2022/12/09 07:25:43;;;;;;;2.95;2.30;;;15.90;44.90;;;;;;6181928;23;45225;-72
2022/12/09 07:28:09;;;;;;;3.70;2.30;;;15.90;45.00;;;;;;6182849;23;45297;-72
2022/12/09 07:30:38;;;;;;;4.65;2.78;;;15.90;44.80;;;;;;6181122;23;45336;-72
2022/12/09 07:33:06;;;;;;;6.18;2.72;;;15.90;44.70;;;;;;6183647;23;48220;-73
2022/12/09 07:35:32;;;;;;;3.85;2.35;;;15.90;44.80;;;;;;6182627;23;45228;-72
2022/12/09 07:37:59;;;;;;;4.32;2.50;;;15.90;44.80;;;;;;6183402;22;45326;-72
2022/12/09 07:40:26;;;;;;;3.85;2.47;;;15.90;44.60;;;;;;6180033;23;45514;-72
2022/12/09 07:42:53;;;;;;;3.08;2.03;;;15.90;44.80;;;;;;6182244;23;46512;-72
2022/12/09 07:45:19;;;;;;;4.53;2.47;;;15.90;44.70;;;;;;6182761;23;45212;-72
2022/12/09 07:47:46;;;;;;;3.85;2.42;;;15.90;45.00;;;;;;6183177;23;45307;-73
2022/12/09 07:50:14;;;;;;;4.47;2.63;;;15.90;44.80;;;;;;6182476;23;45445;-72
2022/12/09 07:52:41;;;;;;;3.92;2.50;;;16.00;44.80;;;;;;6182684;23;46543;-72
2022/12/09 07:55:09;;;;;;;4.38;2.63;;;16.00;45.00;;;;;;6182929;23;45877;-72
2022/12/09 07:57:36;;;;;;;3.55;2.45;;;16.00;44.90;;;;;;6183397;23;45444;-72
2022/12/09 08:00:04;;;;;;;4.93;2.80;;;16.00;44.80;;;;;;6181748;23;45494;-72
2022/12/09 08:02:31;;;;;;;3.83;2.55;;;16.00;44.80;;;;;;6182990;23;48196;-72
2022/12/09 08:04:58;;;;;;;4.63;2.67;;;16.00;44.60;;;;;;6185853;23;45265;-73
2022/12/09 08:07:26;;;;;;;5.97;2.45;;;15.90;44.60;;;;;;6183142;23;45292;-72
2022/12/09 08:09:55;;;;;;;4.05;2.67;;;15.90;44.70;;;;;;6182500;23;45248;-72
2022/12/09 08:12:21;;;;;;;5.90;3.05;;;15.90;44.50;;;;;;6180380;23;46240;-72
2022/12/09 08:14:48;;;;;;;3.90;2.55;;;15.90;45.60;;;;;;6179942;23;45237;-72
2022/12/09 08:17:15;;;;;;;5.65;2.60;;;15.90;45.10;;;;;;6180780;23;45449;-72
2022/12/09 08:19:42;;;;;;;4.03;2.53;;;15.90;44.80;;;;;;6181945;23;45272;-72
2022/12/09 08:22:09;;;;;;;3.75;2.38;;;15.90;44.70;;;;;;6182144;23;46373;-72
2022/12/09 08:24:37;;;;;;;4.88;2.95;;;15.90;45.70;;;;;;6182435;23;45346;-73
2022/12/09 08:27:04;;;;;;;4.65;2.90;;;16.00;45.10;;;;;;6183655;23;45257;-73
2022/12/09 08:29:31;;;;;;;7.15;2.63;;;16.00;45.10;;;;;;6181746;23;45180;-72
2022/12/09 08:31:58;;;;;;;4.88;2.63;;;16.00;45.10;;;;;;6183280;23;45322;-73
2022/12/09 08:34:24;;;;;;;5.43;2.72;;;16.00;45.10;;;;;;6183439;23;45349;-73
2022/12/09 08:36:51;;;;;;;5.32;2.83;;;16.00;45.00;;;;;;6182495;23;45345;-73
2022/12/09 08:39:18;;;;;;;6.40;3.08;;;16.00;45.10;;;;;;6182687;23;45304;-72
2022/12/09 08:41:46;;;;;;;6.15;2.70;;;16.00;45.10;;;;;;6181014;23;46278;-72
2022/12/09 08:44:15;;;;;;;5.88;2.72;;;16.00;45.30;;;;;;6182504;23;45389;-73
2022/12/09 08:46:43;;;;;;;4.15;2.40;;;16.00;45.50;;;;;;6182732;23;45277;-72
2022/12/09 08:49:11;;;;;;;4.68;2.20;;;16.00;45.30;;;;;;6181769;23;45502;-73
2022/12/09 08:51:40;;;;;;;3.70;2.30;;;16.00;45.20;;;;;;6182276;23;45317;-72
2022/12/09 08:54:06;;;;;;;4.53;2.45;;;16.00;45.00;;;;;;6181155;23;45308;-72
2022/12/09 08:56:33;;;;;;;3.67;2.08;;;16.00;44.90;;;;;;6182977;23;45361;-72
2022/12/09 08:59:02;;;;;;;3.10;2.13;;;16.00;45.10;;;;;;6182360;23;45237;-72
2022/12/09 09:01:33;;;;;;;3.97;2.65;;;16.00;45.00;;;;;;6181849;23;45420;-72
2022/12/09 09:04:01;;;;;;;3.90;2.75;;;15.90;44.80;;;;;;6183103;23;45151;-72
2022/12/09 09:06:28;;;;;;;4.72;2.88;;;16.00;44.80;;;;;;6182190;23;45335;-72
2022/12/09 09:08:56;;;;;;;4.35;2.67;;;15.90;44.80;;;;;;6182170;23;45535;-72
2022/12/09 09:11:22;;;;;;;5.63;2.40;;;15.90;45.20;;;;;;6181900;23;45460;-72
2022/12/09 09:13:51;;;;;;;5.43;2.88;;;15.90;49.10;;;;;;6180915;23;45198;-73
2022/12/09 09:16:21;;;;;;;4.32;2.60;;;15.90;47.90;;;;;;6182319;23;45269;-72
2022/12/09 09:18:48;;;;;;;4.25;2.70;;;15.90;47.00;;;;;;6182280;23;45247;-72
2022/12/09 09:21:17;;;;;;;3.60;2.45;;;16.00;46.60;;;;;;6182926;23;46291;-72
2022/12/09 09:23:44;;;;;;;4.50;2.65;;;15.90;46.20;;;;;;6181884;23;45425;-72
2022/12/09 09:26:13;;;;;;;5.85;2.55;;;15.90;45.90;;;;;;6182779;23;45330;-72
2022/12/09 09:28:40;;;;;;;3.97;2.75;;;15.90;46.00;;;;;;6182236;23;45391;-72
2022/12/09 09:31:10;;;;;;;3.97;2.17;;;15.90;45.60;;;;;;6181611;23;48026;-71
2022/12/09 09:33:38;;;;;;;3.00;2.28;;;16.00;45.90;;;;;;6182491;23;45486;-72
2022/12/09 09:36:08;;;;;;;6.05;3.00;;;16.00;45.70;;;;;;6182169;23;45296;-72
2022/12/09 09:38:35;;;;;;;3.63;2.40;;;16.00;45.60;;;;;;6182859;23;45544;-71
2022/12/09 09:41:07;;;;;;;5.63;2.67;;;16.00;45.60;;;;;;6179243;23;45309;-72
2022/12/09 09:43:38;;;;;;;5.78;2.58;;;16.00;45.40;;;;;;6182156;23;45468;-72
2022/12/09 09:46:05;;;;;;;5.90;2.38;;;16.00;45.50;;;;;;6181298;23;45198;-71
2022/12/09 09:48:35;;;;;;;4.28;2.50;;;16.00;45.70;;;;;;6180885;23;45412;-71
2022/12/09 09:51:10;;;;;;;5.40;3.15;;;16.00;45.50;;;;;;6179959;23;45469;-71
2022/12/09 09:53:37;;;;;;;4.60;2.67;;;16.00;45.20;;;;;;6180218;23;45300;-72
2022/12/09 09:56:10;;;;;;;4.22;2.53;;;16.00;45.40;;;;;;6182068;23;45293;-72
2022/12/09 09:58:43;;;;;;;4.13;2.58;;;16.00;45.30;;;;;;6183015;23;45343;-71
2022/12/09 10:01:13;;;;;;;3.92;2.38;;;16.00;45.30;;;;;;6180311;23;46403;-72
2022/12/09 10:03:52;;;;;;;4.50;2.58;;;15.90;45.30;;;;;;6181336;23;45747;-72
2022/12/09 10:06:32;;;;;;;3.90;2.58;;;16.00;45.40;;;;;;6182850;23;45378;-72
2022/12/09 10:09:04;;;;;;;5.30;2.53;;;15.90;45.20;;;;;;6181495;23;45344;-72
2022/12/09 10:11:38;;;;;;;3.85;2.65;;;15.90;45.10;;;;;;6182235;23;45332;-72
2022/12/09 10:14:15;;;;;;;4.32;2.78;;;15.90;45.10;;;;;;6180484;23;45821;-72
2022/12/09 10:16:44;;;;;;;3.75;2.42;;;15.90;45.00;;;;;;6182742;23;45318;-73
2022/12/09 10:19:19;;;;;;;4.25;2.65;;;15.90;45.10;;;;;;6180797;23;45482;-72
2022/12/09 10:21:50;;;;;;;3.75;2.38;;;15.90;45.10;;;;;;6182918;23;46549;-72
2022/12/09 10:24:22;;;;;;;3.45;2.20;;;15.90;45.10;;;;;;6181683;23;45377;-72
2022/12/09 10:26:57;;;;;;;5.35;2.85;;;16.00;45.30;;;;;;6183206;23;45350;-72
2022/12/09 10:29:43;;;;;;;4.55;2.22;;;16.00;45.30;;;;;;6180822;23;45367;-72
2022/12/09 10:32:16;;;;;;;8.70;2.72;;;16.00;45.10;;;;;;6182418;23;48101;-71
2022/12/09 10:34:43;;;;;;;6.03;2.75;;;16.00;45.40;;;;;;6181962;23;45472;-72
2022/12/09 10:37:23;;;;;;;4.95;2.55;;;16.00;45.20;;;;;;6182743;23;45421;-73
2022/12/09 10:39:55;;;;;;;4.68;2.42;;;16.00;45.20;;;;;;6179775;23;45345;-72
2022/12/09 10:45:11;;;;;;;3.40;2.65;;;16.00;45.00;;;;;;6180718;23;45338;-72
2022/12/09 10:47:39;;;;;;;3.42;2.60;;;16.00;46.30;;;;;;6180077;23;45345;-71
2022/12/09 10:50:17;;;;;;;4.10;2.65;;;16.00;44.90;;;;;;6181641;23;45479;-71
2022/12/09 10:52:45;;;;;;;4.88;2.45;;;16.00;44.90;;;;;;6180470;23;45444;-72
2022/12/09 10:55:28;;;;;;;4.18;2.70;;;16.00;44.90;;;;;;6178554;23;45244;-72
2022/12/09 10:58:10;;;;;;;3.92;2.47;;;15.90;45.00;;;;;;6182884;23;45199;-71
2022/12/09 11:00:37;;;;;;;5.25;3.15;;;15.90;44.80;;;;;;6181483;23;45420;-72
2022/12/09 11:03:22;;;;;;;5.05;2.53;;;15.90;44.60;;;;;;6180923;23;46353;-72
2022/12/09 11:05:57;;;;;;;7.78;2.95;;;15.90;44.70;;;;;;6181952;23;45257;-72
2022/12/09 11:08:25;;;;;;;5.82;2.92;;;15.90;44.70;;;;;;6183295;23;45243;-72
2022/12/09 11:10:52;;;;;;;4.35;2.60;;;15.90;44.70;;;;;;6181795;23;45406;-72
2022/12/09 11:13:20;;;;;;;5.55;2.85;;;15.90;44.50;;;;;;6181919;23;45265;-71
2022/12/09 11:15:53;;;;;;;5.30;2.97;;;15.90;44.70;;;;;;6182656;23;45241;-73
2022/12/09 11:18:24;;;;;;;3.42;2.45;;;15.90;48.40;;;;;;6181599;23;45449;-71
2022/12/09 11:20:58;;;;;;;5.00;2.70;;;16.00;46.90;;;;;;6182505;23;45318;-72
2022/12/09 11:23:27;;;;;;;3.67;2.60;;;16.00;46.20;;;;;;6182088;23;45275;-72
2022/12/09 11:25:56;;;;;;;6.47;2.75;;;16.00;45.90;;;;;;6180630;23;45330;-73
2022/12/09 11:28:25;;;;;;;6.00;2.80;;;16.00;45.80;;;;;;6181517;23;45348;-72
2022/12/09 11:30:54;;;;;;;3.50;2.30;;;16.00;45.70;;;;;;6182064;23;45453;-71
2022/12/09 11:33:26;;;;;;;4.28;2.63;;;16.00;45.80;;;;;;6181555;23;46506;-72
2022/12/09 11:35:57;;;;;;;4.95;2.65;;;16.00;45.80;;;;;;6180973;23;45205;-72
2022/12/09 11:38:36;;;;;;;5.70;2.92;;;16.00;45.70;;;;;;6180804;23;45407;-72
2022/12/09 11:42:12;;;;;;;5.85;3.33;;;16.00;45.50;;;;;;6180539;23;45297;-72
2022/12/09 11:44:22;;;;;;;5.57;2.95;;;16.00;45.20;;;;;;6180745;23;46591;-72
2022/12/09 11:46:58;;;;;;;5.22;2.97;;;16.00;45.20;;;;;;6180669;23;45307;-72
2022/12/09 11:49:26;;;;;;;29.57;5.20;;;16.00;45.20;;;;;;6180308;23;45451;-72
2022/12/09 11:52:03;;;;;;;6.93;2.58;;;16.00;47.50;;;;;;6179250;23;45233;-72
2022/12/09 11:54:38;;;;;;;11.10;3.05;;;16.10;47.80;;;;;;6183303;23;45319;-73
2022/12/09 11:57:12;;;;;;;4.75;2.88;;;16.10;46.70;;;;;;6182101;23;45482;-73
2022/12/09 11:59:46;;;;;;;7.53;2.63;;;16.00;46.30;;;;;;6180884;23;45340;-72
2022/12/09 12:02:25;;;;;;;6.38;3.08;;;16.00;46.10;;;;;;6181570;23;45261;-72
2022/12/09 12:04:58;;;;;;;9.00;3.03;;;16.00;45.90;;;;;;6181889;23;45471;-72
2022/12/09 12:07:32;;;;;;;6.70;2.85;;;15.90;45.50;;;;;;6180947;23;45289;-72
2022/12/09 12:10:02;;;;;;;4.90;3.00;;;16.00;45.40;;;;;;6179636;23;45308;-72
2022/12/09 12:12:38;;;;;;;6.78;3.15;;;15.90;45.30;;;;;;6181804;23;45399;-72
2022/12/09 12:15:14;;;;;;;5.47;2.88;;;16.00;45.10;;;;;;6182443;23;46531;-72
2022/12/09 12:17:49;;;;;;;5.50;2.85;;;16.00;45.00;;;;;;6183705;23;45245;-72
2022/12/09 12:20:16;;;;;;;5.55;3.00;;;16.00;44.80;;;;;;6183459;23;45402;-72
2022/12/09 12:23:16;;;;;;;6.25;3.00;;;16.10;44.70;;;;;;6182842;23;45296;-73
2022/12/09 12:25:56;;;;;;;5.05;2.80;;;16.00;44.50;;;;;;6183384;23;46968;-73
2022/12/09 12:28:45;;;;;;;5.80;3.28;;;16.00;44.40;;;;;;6181530;23;45265;-73
2022/12/09 12:31:29;;;;;;;5.47;3.10;;;16.10;44.20;;;;;;6182262;23;45249;-72
2022/12/09 12:34:09;;;;;;;6.28;3.03;;;16.10;44.20;;;;;;6183235;23;45364;-72
2022/12/09 12:36:44;;;;;;;4.53;2.90;;;16.10;44.20;;;;;;6183052;23;46711;-72
2022/12/09 12:39:24;;;;;;;7.60;3.05;;;16.10;44.10;;;;;;6182816;23;45464;-72
2022/12/09 12:42:00;;;;;;;4.85;3.13;;;16.10;44.00;;;;;;6183910;23;45297;-73
2022/12/09 12:47:28;;;;;;;6.82;3.38;;;16.10;44.20;;;;;;6183429;23;45308;-73
2022/12/09 12:50:10;;;;;;;8.77;3.47;;;16.10;44.10;;;;;;6183251;23;45344;-72
2022/12/09 12:52:44;;;;;;;5.07;2.97;;;16.10;44.30;;;;;;6183160;23;45186;-73
2022/12/09 12:55:24;;;;;;;5.30;2.92;;;16.10;44.30;;;;;;6184150;23;45411;-72
2022/12/09 12:58:00;;;;;;;6.70;3.30;;;16.00;44.30;;;;;;6183430;23;48244;-73
2022/12/09 13:00:36;;;;;;;7.30;3.53;;;16.00;44.30;;;;;;6182884;23;45320;-72
2022/12/09 13:03:19;;;;;;;6.93;3.17;;;16.00;44.40;;;;;;6181573;23;45275;-72
2022/12/09 13:05:50;;;;;;;5.38;3.38;;;16.00;44.50;;;;;;6184507;23;45580;-72